sensor_id;sensor_type;location;lat;lon;timestamp;temperature;humidity
20158;DHT22;10239;56.820;24.416;2023-02-22T00:01:55;-0.30;99.90
20158;DHT22;10239;56.820;24.416;2023-02-22T00:04:40;-0.30;99.90
20158;DHT22;10239;56.820;24.416;2023-02-22T00:07:08;-0.40;99.90
20158;DHT22;10239;56.820;24.416;2023-02-22T00:09:35;-0.50;99.90
20158;DHT22;10239;56.820;24.416;2023-02-22T00:12:03;-0.50;99.90
20158;DHT22;10239;56.820;24.416;2023-02-22T00:14:31;-0.50;99.90
20158;DHT22;10239;56.820;24.416;2023-02-22T00:16:58;-0.50;99.90
20158;DHT22;10239;56.820;24.416;2023-02-22T00:19:26;-0.50;99.90
20158;DHT22;10239;56.820;24.416;2023-02-22T00:21:57;-0.50;99.90
20158;DHT22;10239;56.820;24.416;2023-02-22T00:24:26;-0.50;99.90
20158;DHT22;10239;56.820;24.416;2023-02-22T00:26:55;-0.50;99.90
20158;DHT22;10239;56.820;24.416;2023-02-22T00:29:24;-0.60;99.90
20158;DHT22;10239;56.820;24.416;2023-02-22T00:31:52;-0.50;99.90
20158;DHT22;10239;56.820;24.416;2023-02-22T00:34:20;-0.50;99.90
20158;DHT22;10239;56.820;24.416;2023-02-22T00:36:50;-0.50;99.90
20158;DHT22;10239;56.820;24.416;2023-02-22T00:39:17;-0.50;99.90
20158;DHT22;10239;56.820;24.416;2023-02-22T00:41:45;-0.40;99.90
20158;DHT22;10239;56.820;24.416;2023-02-22T00:44:13;-0.40;99.90
20158;DHT22;10239;56.820;24.416;2023-02-22T00:46:41;-0.30;99.90
20158;DHT22;10239;56.820;24.416;2023-02-22T00:49:08;-0.40;99.90
20158;DHT22;10239;56.820;24.416;2023-02-22T00:51:36;-0.40;99.90
20158;DHT22;10239;56.820;24.416;2023-02-22T00:54:04;-0.50;99.90
20158;DHT22;10239;56.820;24.416;2023-02-22T00:56:32;-0.50;99.90
20158;DHT22;10239;56.820;24.416;2023-02-22T00:59:04;-0.50;99.90
20158;DHT22;10239;56.820;24.416;2023-02-22T01:01:32;-0.60;99.90
20158;DHT22;10239;56.820;24.416;2023-02-22T01:04:00;-0.50;99.90
20158;DHT22;10239;56.820;24.416;2023-02-22T01:06:28;-0.40;99.90
20158;DHT22;10239;56.820;24.416;2023-02-22T01:08:57;-0.50;99.90
20158;DHT22;10239;56.820;24.416;2023-02-22T01:11:25;-0.40;99.90
20158;DHT22;10239;56.820;24.416;2023-02-22T01:13:53;-0.50;99.90
20158;DHT22;10239;56.820;24.416;2023-02-22T01:16:21;-0.50;99.90
20158;DHT22;10239;56.820;24.416;2023-02-22T01:18:49;-0.50;99.90
20158;DHT22;10239;56.820;24.416;2023-02-22T01:21:17;-0.50;99.90
20158;DHT22;10239;56.820;24.416;2023-02-22T01:23:46;-0.50;99.90
20158;DHT22;10239;56.820;24.416;2023-02-22T01:26:13;-0.50;99.90
20158;DHT22;10239;56.820;24.416;2023-02-22T01:28:41;-0.50;99.90
20158;DHT22;10239;56.820;24.416;2023-02-22T01:31:09;-0.50;99.90
20158;DHT22;10239;56.820;24.416;2023-02-22T01:33:39;-0.70;99.90
20158;DHT22;10239;56.820;24.416;2023-02-22T01:36:07;-0.70;99.90
20158;DHT22;10239;56.820;24.416;2023-02-22T01:38:38;-0.80;99.90
20158;DHT22;10239;56.820;24.416;2023-02-22T01:41:05;-0.80;99.90
20158;DHT22;10239;56.820;24.416;2023-02-22T01:43:36;-0.70;99.90
20158;DHT22;10239;56.820;24.416;2023-02-22T01:46:25;-0.80;99.90
20158;DHT22;10239;56.820;24.416;2023-02-22T01:49:03;-0.90;99.90
20158;DHT22;10239;56.820;24.416;2023-02-22T01:51:36;-0.90;99.90
20158;DHT22;10239;56.820;24.416;2023-02-22T01:56:46;-0.90;99.90
20158;DHT22;10239;56.820;24.416;2023-02-22T01:59:18;-0.90;99.90
20158;DHT22;10239;56.820;24.416;2023-02-22T02:01:47;-1.00;99.90
20158;DHT22;10239;56.820;24.416;2023-02-22T02:04:19;-1.00;99.90
20158;DHT22;10239;56.820;24.416;2023-02-22T02:06:58;-1.00;99.90
20158;DHT22;10239;56.820;24.416;2023-02-22T02:09:47;-1.00;99.90
20158;DHT22;10239;56.820;24.416;2023-02-22T02:13:14;-1.00;99.90
20158;DHT22;10239;56.820;24.416;2023-02-22T02:15:42;-1.00;99.90
20158;DHT22;10239;56.820;24.416;2023-02-22T02:18:11;-1.00;99.90
20158;DHT22;10239;56.820;24.416;2023-02-22T02:23:26;-1.10;99.90
20158;DHT22;10239;56.820;24.416;2023-02-22T02:35:20;-1.10;99.90
20158;DHT22;10239;56.820;24.416;2023-02-22T02:38:11;-1.10;99.90
20158;DHT22;10239;56.820;24.416;2023-02-22T02:40:47;-1.20;99.90
20158;DHT22;10239;56.820;24.416;2023-02-22T02:43:36;-1.30;99.90
20158;DHT22;10239;56.820;24.416;2023-02-22T02:48:42;-1.30;99.90
20158;DHT22;10239;56.820;24.416;2023-02-22T02:51:12;-1.30;99.90
20158;DHT22;10239;56.820;24.416;2023-02-22T02:53:45;-1.30;99.90
20158;DHT22;10239;56.820;24.416;2023-02-22T02:56:13;-1.30;99.90
20158;DHT22;10239;56.820;24.416;2023-02-22T02:58:45;-1.30;99.90
20158;DHT22;10239;56.820;24.416;2023-02-22T03:01:48;-1.20;99.90
20158;DHT22;10239;56.820;24.416;2023-02-22T03:07:44;-1.20;99.90
20158;DHT22;10239;56.820;24.416;2023-02-22T03:10:26;-1.20;99.90
20158;DHT22;10239;56.820;24.416;2023-02-22T03:18:55;-1.40;99.90
20158;DHT22;10239;56.820;24.416;2023-02-22T03:21:56;-1.40;99.90
20158;DHT22;10239;56.820;24.416;2023-02-22T03:24:36;-1.30;99.90
20158;DHT22;10239;56.820;24.416;2023-02-22T03:27:22;-1.40;99.90
20158;DHT22;10239;56.820;24.416;2023-02-22T03:29:57;-1.50;99.90
20158;DHT22;10239;56.820;24.416;2023-02-22T03:32:34;-1.50;99.90
20158;DHT22;10239;56.820;24.416;2023-02-22T03:35:12;-1.50;99.90
20158;DHT22;10239;56.820;24.416;2023-02-22T03:37:47;-1.50;99.90
20158;DHT22;10239;56.820;24.416;2023-02-22T03:40:33;-1.50;99.90
20158;DHT22;10239;56.820;24.416;2023-02-22T03:43:06;-1.50;99.90
20158;DHT22;10239;56.820;24.416;2023-02-22T03:45:40;-1.50;99.90
20158;DHT22;10239;56.820;24.416;2023-02-22T03:48:33;-1.50;99.90
20158;DHT22;10239;56.820;24.416;2023-02-22T03:51:04;-1.60;99.90
20158;DHT22;10239;56.820;24.416;2023-02-22T03:53:33;-1.50;99.90
20158;DHT22;10239;56.820;24.416;2023-02-22T03:56:08;-1.40;99.90
20158;DHT22;10239;56.820;24.416;2023-02-22T03:58:39;-1.40;99.90
20158;DHT22;10239;56.820;24.416;2023-02-22T04:01:11;-1.50;99.90
20158;DHT22;10239;56.820;24.416;2023-02-22T04:03:39;-1.50;99.90
20158;DHT22;10239;56.820;24.416;2023-02-22T04:06:09;-1.50;99.90
20158;DHT22;10239;56.820;24.416;2023-02-22T04:08:37;-1.50;99.90
20158;DHT22;10239;56.820;24.416;2023-02-22T04:11:04;-1.60;99.90
20158;DHT22;10239;56.820;24.416;2023-02-22T04:13:32;-1.70;99.90
20158;DHT22;10239;56.820;24.416;2023-02-22T04:15:59;-1.70;99.90
20158;DHT22;10239;56.820;24.416;2023-02-22T04:18:27;-1.70;99.90
20158;DHT22;10239;56.820;24.416;2023-02-22T04:20:55;-1.70;99.90
20158;DHT22;10239;56.820;24.416;2023-02-22T04:23:30;-1.60;99.90
20158;DHT22;10239;56.820;24.416;2023-02-22T04:25:58;-1.60;99.90
20158;DHT22;10239;56.820;24.416;2023-02-22T04:28:25;-1.70;99.90
20158;DHT22;10239;56.820;24.416;2023-02-22T04:31:03;-1.70;99.90
20158;DHT22;10239;56.820;24.416;2023-02-22T04:33:31;-1.60;99.90
20158;DHT22;10239;56.820;24.416;2023-02-22T04:35:58;-1.50;99.90
20158;DHT22;10239;56.820;24.416;2023-02-22T04:38:27;-1.60;99.90
20158;DHT22;10239;56.820;24.416;2023-02-22T04:40:57;-1.70;99.90
20158;DHT22;10239;56.820;24.416;2023-02-22T04:43:26;-1.70;99.90
20158;DHT22;10239;56.820;24.416;2023-02-22T04:46:01;-1.70;99.90
20158;DHT22;10239;56.820;24.416;2023-02-22T04:48:28;-1.70;99.90
20158;DHT22;10239;56.820;24.416;2023-02-22T04:50:56;-1.70;99.90
20158;DHT22;10239;56.820;24.416;2023-02-22T04:53:24;-1.70;99.90
20158;DHT22;10239;56.820;24.416;2023-02-22T04:55:52;-1.70;99.90
20158;DHT22;10239;56.820;24.416;2023-02-22T04:58:20;-1.70;99.90
20158;DHT22;10239;56.820;24.416;2023-02-22T05:00:47;-1.80;99.90
20158;DHT22;10239;56.820;24.416;2023-02-22T05:03:15;-1.80;99.90
20158;DHT22;10239;56.820;24.416;2023-02-22T05:05:43;-1.80;99.90
20158;DHT22;10239;56.820;24.416;2023-02-22T05:08:10;-1.70;99.90
20158;DHT22;10239;56.820;24.416;2023-02-22T05:10:38;-1.70;99.90
20158;DHT22;10239;56.820;24.416;2023-02-22T05:13:05;-1.70;99.90
20158;DHT22;10239;56.820;24.416;2023-02-22T05:15:33;-1.70;99.90
20158;DHT22;10239;56.820;24.416;2023-02-22T05:18:01;-1.70;99.90
20158;DHT22;10239;56.820;24.416;2023-02-22T05:20:31;-1.60;99.90
20158;DHT22;10239;56.820;24.416;2023-02-22T05:23:00;-1.70;99.90
20158;DHT22;10239;56.820;24.416;2023-02-22T05:25:28;-1.80;99.90
20158;DHT22;10239;56.820;24.416;2023-02-22T05:27:59;-1.90;99.90
20158;DHT22;10239;56.820;24.416;2023-02-22T05:30:30;-1.90;99.90
20158;DHT22;10239;56.820;24.416;2023-02-22T05:32:59;-1.90;99.90
20158;DHT22;10239;56.820;24.416;2023-02-22T05:35:27;-1.80;99.90
20158;DHT22;10239;56.820;24.416;2023-02-22T05:37:55;-1.80;99.90
20158;DHT22;10239;56.820;24.416;2023-02-22T05:40:25;-1.90;99.90
20158;DHT22;10239;56.820;24.416;2023-02-22T05:42:53;-1.90;99.90
20158;DHT22;10239;56.820;24.416;2023-02-22T05:45:23;-1.90;99.90
20158;DHT22;10239;56.820;24.416;2023-02-22T05:47:51;-1.90;99.90
20158;DHT22;10239;56.820;24.416;2023-02-22T05:50:19;-2.00;99.90
20158;DHT22;10239;56.820;24.416;2023-02-22T05:52:47;-2.00;99.90
20158;DHT22;10239;56.820;24.416;2023-02-22T05:55:17;-2.10;99.90
20158;DHT22;10239;56.820;24.416;2023-02-22T05:57:45;-1.80;99.90
20158;DHT22;10239;56.820;24.416;2023-02-22T06:02:52;-1.40;99.90
20158;DHT22;10239;56.820;24.416;2023-02-22T06:05:19;-1.40;99.90
20158;DHT22;10239;56.820;24.416;2023-02-22T06:07:47;-1.50;99.90
20158;DHT22;10239;56.820;24.416;2023-02-22T06:10:15;-1.70;99.90
20158;DHT22;10239;56.820;24.416;2023-02-22T06:12:42;-1.70;99.90
20158;DHT22;10239;56.820;24.416;2023-02-22T06:15:11;-1.60;99.90
20158;DHT22;10239;56.820;24.416;2023-02-22T06:17:38;-1.50;99.90
20158;DHT22;10239;56.820;24.416;2023-02-22T06:20:10;-1.30;99.90
20158;DHT22;10239;56.820;24.416;2023-02-22T06:22:38;-0.60;99.90
20158;DHT22;10239;56.820;24.416;2023-02-22T06:25:08;-0.30;99.90
20158;DHT22;10239;56.820;24.416;2023-02-22T06:27:36;-0.30;99.90
20158;DHT22;10239;56.820;24.416;2023-02-22T06:30:08;-0.30;99.90
20158;DHT22;10239;56.820;24.416;2023-02-22T06:32:39;0.20;99.90
20158;DHT22;10239;56.820;24.416;2023-02-22T06:35:07;1.10;99.90
20158;DHT22;10239;56.820;24.416;2023-02-22T06:37:35;2.00;99.90
20158;DHT22;10239;56.820;24.416;2023-02-22T06:40:02;2.40;99.90
20158;DHT22;10239;56.820;24.416;2023-02-22T06:42:31;1.90;99.90
20158;DHT22;10239;56.820;24.416;2023-02-22T06:44:59;1.50;99.90
20158;DHT22;10239;56.820;24.416;2023-02-22T06:47:27;2.20;99.90
20158;DHT22;10239;56.820;24.416;2023-02-22T06:49:56;2.90;99.90
20158;DHT22;10239;56.820;24.416;2023-02-22T06:52:24;2.80;99.90
20158;DHT22;10239;56.820;24.416;2023-02-22T06:54:51;3.70;99.90
20158;DHT22;10239;56.820;24.416;2023-02-22T06:57:19;4.90;99.90
20158;DHT22;10239;56.820;24.416;2023-02-22T06:59:49;6.10;99.90
20158;DHT22;10239;56.820;24.416;2023-02-22T07:02:16;7.00;99.90
20158;DHT22;10239;56.820;24.416;2023-02-22T07:04:45;7.40;99.90
20158;DHT22;10239;56.820;24.416;2023-02-22T07:07:12;7.40;99.90
20158;DHT22;10239;56.820;24.416;2023-02-22T07:09:40;7.40;99.90
20158;DHT22;10239;56.820;24.416;2023-02-22T07:12:10;7.90;99.90
20158;DHT22;10239;56.820;24.416;2023-02-22T07:14:38;8.00;99.90
20158;DHT22;10239;56.820;24.416;2023-02-22T07:17:05;8.80;99.90
20158;DHT22;10239;56.820;24.416;2023-02-22T07:19:33;9.20;99.90
20158;DHT22;10239;56.820;24.416;2023-02-22T07:22:01;9.50;99.90
20158;DHT22;10239;56.820;24.416;2023-02-22T07:24:28;9.80;99.90
20158;DHT22;10239;56.820;24.416;2023-02-22T07:26:56;9.90;98.10
20158;DHT22;10239;56.820;24.416;2023-02-22T07:29:24;9.80;99.20
20158;DHT22;10239;56.820;24.416;2023-02-22T07:31:53;10.20;98.20
20158;DHT22;10239;56.820;24.416;2023-02-22T07:34:25;10.60;97.60
20158;DHT22;10239;56.820;24.416;2023-02-22T07:36:53;11.20;97.20
20158;DHT22;10239;56.820;24.416;2023-02-22T07:39:20;11.30;96.20
20158;DHT22;10239;56.820;24.416;2023-02-22T07:41:49;11.20;96.30
20158;DHT22;10239;56.820;24.416;2023-02-22T07:44:23;11.00;94.60
20158;DHT22;10239;56.820;24.416;2023-02-22T07:46:50;10.70;95.60
20158;DHT22;10239;56.820;24.416;2023-02-22T07:49:18;10.60;94.50
20158;DHT22;10239;56.820;24.416;2023-02-22T07:51:46;10.40;96.40
20158;DHT22;10239;56.820;24.416;2023-02-22T07:54:13;11.80;95.00
20158;DHT22;10239;56.820;24.416;2023-02-22T07:56:46;12.50;93.60
20158;DHT22;10239;56.820;24.416;2023-02-22T07:59:15;12.50;93.10
20158;DHT22;10239;56.820;24.416;2023-02-22T08:01:42;12.40;92.20
20158;DHT22;10239;56.820;24.416;2023-02-22T08:04:10;12.20;91.80
20158;DHT22;10239;56.820;24.416;2023-02-22T08:06:38;12.20;91.90
20158;DHT22;10239;56.820;24.416;2023-02-22T08:09:07;11.90;92.30
20158;DHT22;10239;56.820;24.416;2023-02-22T08:11:34;12.10;91.50
20158;DHT22;10239;56.820;24.416;2023-02-22T08:14:02;12.00;91.50
20158;DHT22;10239;56.820;24.416;2023-02-22T08:16:29;11.70;92.10
20158;DHT22;10239;56.820;24.416;2023-02-22T08:18:57;11.70;91.00
20158;DHT22;10239;56.820;24.416;2023-02-22T08:21:25;12.00;91.20
20158;DHT22;10239;56.820;24.416;2023-02-22T08:23:52;12.20;90.20
20158;DHT22;10239;56.820;24.416;2023-02-22T08:26:21;12.10;90.50
20158;DHT22;10239;56.820;24.416;2023-02-22T08:28:50;12.10;90.70
20158;DHT22;10239;56.820;24.416;2023-02-22T08:31:18;12.40;91.00
20158;DHT22;10239;56.820;24.416;2023-02-22T08:33:49;12.40;90.70
20158;DHT22;10239;56.820;24.416;2023-02-22T08:36:17;12.10;91.10
20158;DHT22;10239;56.820;24.416;2023-02-22T08:38:44;12.00;90.90
20158;DHT22;10239;56.820;24.416;2023-02-22T08:41:12;11.80;90.70
20158;DHT22;10239;56.820;24.416;2023-02-22T08:43:40;11.40;90.20
20158;DHT22;10239;56.820;24.416;2023-02-22T08:46:07;11.30;91.40
20158;DHT22;10239;56.820;24.416;2023-02-22T08:48:35;11.70;91.10
20158;DHT22;10239;56.820;24.416;2023-02-22T08:51:02;11.80;91.40
20158;DHT22;10239;56.820;24.416;2023-02-22T08:53:30;11.70;90.50
20158;DHT22;10239;56.820;24.416;2023-02-22T08:55:59;11.60;91.40
20158;DHT22;10239;56.820;24.416;2023-02-22T08:58:26;11.40;91.00
20158;DHT22;10239;56.820;24.416;2023-02-22T09:00:54;11.10;90.50
20158;DHT22;10239;56.820;24.416;2023-02-22T09:03:23;10.90;89.80
20158;DHT22;10239;56.820;24.416;2023-02-22T09:05:50;11.20;91.30
20158;DHT22;10239;56.820;24.416;2023-02-22T09:08:18;11.30;91.90
20158;DHT22;10239;56.820;24.416;2023-02-22T09:10:45;11.20;91.10
20158;DHT22;10239;56.820;24.416;2023-02-22T09:13:13;11.60;90.70
20158;DHT22;10239;56.820;24.416;2023-02-22T09:15:41;11.60;91.90
20158;DHT22;10239;56.820;24.416;2023-02-22T09:18:10;11.40;90.60
20158;DHT22;10239;56.820;24.416;2023-02-22T09:20:39;11.30;91.90
20158;DHT22;10239;56.820;24.416;2023-02-22T09:23:08;11.20;91.00
20158;DHT22;10239;56.820;24.416;2023-02-22T09:25:36;11.40;91.20
20158;DHT22;10239;56.820;24.416;2023-02-22T09:28:07;10.70;91.40
20158;DHT22;10239;56.820;24.416;2023-02-22T09:30:35;9.90;92.40
20158;DHT22;10239;56.820;24.416;2023-02-22T09:33:09;9.20;92.60
20158;DHT22;10239;56.820;24.416;2023-02-22T09:35:39;8.00;92.40
20158;DHT22;10239;56.820;24.416;2023-02-22T09:38:15;7.30;93.70
20158;DHT22;10239;56.820;24.416;2023-02-22T09:43:37;6.20;95.10
20158;DHT22;10239;56.820;24.416;2023-02-22T09:48:53;5.60;96.10
20158;DHT22;10239;56.820;24.416;2023-02-22T09:51:52;5.80;95.80
20158;DHT22;10239;56.820;24.416;2023-02-22T09:56:56;7.40;95.40
20158;DHT22;10239;56.820;24.416;2023-02-22T09:59:30;8.00;94.00
20158;DHT22;10239;56.820;24.416;2023-02-22T10:02:13;8.10;94.30
20158;DHT22;10239;56.820;24.416;2023-02-22T10:04:56;8.50;94.30
20158;DHT22;10239;56.820;24.416;2023-02-22T10:07:40;8.80;94.50
20158;DHT22;10239;56.820;24.416;2023-02-22T10:10:17;8.90;94.00
20158;DHT22;10239;56.820;24.416;2023-02-22T10:27:38;8.10;93.80
20158;DHT22;10239;56.820;24.416;2023-02-22T10:33:12;7.70;94.20
20158;DHT22;10239;56.820;24.416;2023-02-22T10:35:43;7.70;94.40
20158;DHT22;10239;56.820;24.416;2023-02-22T10:38:17;7.70;96.40
20158;DHT22;10239;56.820;24.416;2023-02-22T10:40:54;7.80;95.10
20158;DHT22;10239;56.820;24.416;2023-02-22T10:43:24;7.80;94.00
20158;DHT22;10239;56.820;24.416;2023-02-22T10:45:55;7.70;95.50
20158;DHT22;10239;56.820;24.416;2023-02-22T10:48:25;7.40;93.80
20158;DHT22;10239;56.820;24.416;2023-02-22T10:50:59;7.60;93.70
20158;DHT22;10239;56.820;24.416;2023-02-22T10:53:30;7.10;94.40
20158;DHT22;10239;56.820;24.416;2023-02-22T11:04:17;6.90;94.30
20158;DHT22;10239;56.820;24.416;2023-02-22T11:07:09;6.80;94.20
20158;DHT22;10239;56.820;24.416;2023-02-22T11:12:35;6.90;93.10
20158;DHT22;10239;56.820;24.416;2023-02-22T11:17:48;6.30;95.10
20158;DHT22;10239;56.820;24.416;2023-02-22T11:20:33;6.30;95.90
20158;DHT22;10239;56.820;24.416;2023-02-22T11:23:05;6.10;94.00
20158;DHT22;10239;56.820;24.416;2023-02-22T11:25:37;5.90;95.30
20158;DHT22;10239;56.820;24.416;2023-02-22T11:28:20;5.70;95.20
20158;DHT22;10239;56.820;24.416;2023-02-22T11:31:12;5.50;96.20
20158;DHT22;10239;56.820;24.416;2023-02-22T11:33:49;5.40;97.00
20158;DHT22;10239;56.820;24.416;2023-02-22T11:36:35;5.40;95.00
20158;DHT22;10239;56.820;24.416;2023-02-22T11:39:09;5.20;95.30
20158;DHT22;10239;56.820;24.416;2023-02-22T11:41:48;4.90;95.20
20158;DHT22;10239;56.820;24.416;2023-02-22T11:46:56;4.70;95.30
20158;DHT22;10239;56.820;24.416;2023-02-22T11:49:40;4.40;95.40
20158;DHT22;10239;56.820;24.416;2023-02-22T11:57:48;3.60;96.00
20158;DHT22;10239;56.820;24.416;2023-02-22T12:00:41;3.40;96.20
20158;DHT22;10239;56.820;24.416;2023-02-22T12:05:56;3.20;97.20
20158;DHT22;10239;56.820;24.416;2023-02-22T12:11:32;3.20;97.20
20158;DHT22;10239;56.820;24.416;2023-02-22T12:19:38;3.10;97.20
20158;DHT22;10239;56.820;24.416;2023-02-22T12:22:17;3.10;97.90
20158;DHT22;10239;56.820;24.416;2023-02-22T12:24:51;3.20;98.40
20158;DHT22;10239;56.820;24.416;2023-02-22T12:27:45;3.00;98.10
20158;DHT22;10239;56.820;24.416;2023-02-22T12:30:26;2.80;98.20
20158;DHT22;10239;56.820;24.416;2023-02-22T12:32:59;2.70;98.60
20158;DHT22;10239;56.820;24.416;2023-02-22T12:35:43;2.60;99.00
20158;DHT22;10239;56.820;24.416;2023-02-22T12:43:55;2.60;99.10
20158;DHT22;10239;56.820;24.416;2023-02-22T12:49:51;2.70;99.00
20158;DHT22;10239;56.820;24.416;2023-02-22T12:52:32;2.40;99.10
20158;DHT22;10239;56.820;24.416;2023-02-22T12:57:50;2.20;99.40
20158;DHT22;10239;56.820;24.416;2023-02-22T13:00:42;2.20;99.10
20158;DHT22;10239;56.820;24.416;2023-02-22T13:03:34;2.00;98.70
20158;DHT22;10239;56.820;24.416;2023-02-22T13:09:03;2.00;99.90
20158;DHT22;10239;56.820;24.416;2023-02-22T13:20:23;1.90;99.70
20158;DHT22;10239;56.820;24.416;2023-02-22T13:23:12;1.70;99.80
20158;DHT22;10239;56.820;24.416;2023-02-22T13:34:29;1.50;99.90
20158;DHT22;10239;56.820;24.416;2023-02-22T13:37:13;1.50;99.90
20158;DHT22;10239;56.820;24.416;2023-02-22T13:43:32;1.40;99.90
20158;DHT22;10239;56.820;24.416;2023-02-22T13:52:12;1.10;99.90
20158;DHT22;10239;56.820;24.416;2023-02-22T13:54:44;1.00;99.90
20158;DHT22;10239;56.820;24.416;2023-02-22T13:57:28;1.00;99.90
20158;DHT22;10239;56.820;24.416;2023-02-22T14:00:18;1.00;99.90
20158;DHT22;10239;56.820;24.416;2023-02-22T14:10:56;0.80;99.90
20158;DHT22;10239;56.820;24.416;2023-02-22T14:21:21;0.50;99.90
20158;DHT22;10239;56.820;24.416;2023-02-22T14:23:53;0.50;99.90
20158;DHT22;10239;56.820;24.416;2023-02-22T14:26:27;0.50;99.90
20158;DHT22;10239;56.820;24.416;2023-02-22T14:31:32;0.40;99.90
20158;DHT22;10239;56.820;24.416;2023-02-22T14:34:13;0.30;99.90
20158;DHT22;10239;56.820;24.416;2023-02-22T14:36:58;0.10;99.90
20158;DHT22;10239;56.820;24.416;2023-02-22T14:39:57;0.00;99.90
20158;DHT22;10239;56.820;24.416;2023-02-22T14:42:32;-0.10;99.90
20158;DHT22;10239;56.820;24.416;2023-02-22T14:47:46;-0.20;99.90
20158;DHT22;10239;56.820;24.416;2023-02-22T14:50:24;-0.30;99.90
20158;DHT22;10239;56.820;24.416;2023-02-22T15:01:35;-0.70;99.90
20158;DHT22;10239;56.820;24.416;2023-02-22T15:04:29;-0.80;99.90
20158;DHT22;10239;56.820;24.416;2023-02-22T15:07:08;-0.90;99.90
20158;DHT22;10239;56.820;24.416;2023-02-22T15:09:36;-1.00;99.90
20158;DHT22;10239;56.820;24.416;2023-02-22T15:14:36;-1.20;99.90
20158;DHT22;10239;56.820;24.416;2023-02-22T15:17:15;-1.30;99.90
20158;DHT22;10239;56.820;24.416;2023-02-22T15:19:46;-1.30;99.90
20158;DHT22;10239;56.820;24.416;2023-02-22T15:22:25;-1.40;99.90
20158;DHT22;10239;56.820;24.416;2023-02-22T15:25:01;-1.50;99.90
20158;DHT22;10239;56.820;24.416;2023-02-22T15:27:30;-1.60;99.90
20158;DHT22;10239;56.820;24.416;2023-02-22T15:30:27;-1.60;99.90
20158;DHT22;10239;56.820;24.416;2023-02-22T15:32:55;-1.70;99.90
20158;DHT22;10239;56.820;24.416;2023-02-22T15:35:32;-1.70;99.90
20158;DHT22;10239;56.820;24.416;2023-02-22T15:40:29;-1.90;99.90
20158;DHT22;10239;56.820;24.416;2023-02-22T15:43:05;-2.00;99.90
20158;DHT22;10239;56.820;24.416;2023-02-22T15:45:36;-2.00;99.90
20158;DHT22;10239;56.820;24.416;2023-02-22T15:48:10;-2.00;99.90
20158;DHT22;10239;56.820;24.416;2023-02-22T15:50:38;-2.10;99.90
20158;DHT22;10239;56.820;24.416;2023-02-22T15:55:48;-2.20;99.90
20158;DHT22;10239;56.820;24.416;2023-02-22T15:58:23;-2.30;99.90
20158;DHT22;10239;56.820;24.416;2023-02-22T16:01:13;-2.40;99.90
20158;DHT22;10239;56.820;24.416;2023-02-22T16:03:46;-2.40;99.90
20158;DHT22;10239;56.820;24.416;2023-02-22T16:06:38;-2.50;99.90
20158;DHT22;10239;56.820;24.416;2023-02-22T16:09:11;-2.50;99.90
20158;DHT22;10239;56.820;24.416;2023-02-22T16:11:42;-2.60;99.90
20158;DHT22;10239;56.820;24.416;2023-02-22T16:14:29;-2.60;99.90
20158;DHT22;10239;56.820;24.416;2023-02-22T16:19:51;-2.70;99.90
20158;DHT22;10239;56.820;24.416;2023-02-22T16:22:29;-2.70;99.90
20158;DHT22;10239;56.820;24.416;2023-02-22T16:27:51;-2.80;99.90
20158;DHT22;10239;56.820;24.416;2023-02-22T16:30:32;-2.90;99.90
20158;DHT22;10239;56.820;24.416;2023-02-22T16:33:04;-2.90;99.90
20158;DHT22;10239;56.820;24.416;2023-02-22T16:35:32;-3.00;99.90
20158;DHT22;10239;56.820;24.416;2023-02-22T16:38:04;-3.00;99.90
20158;DHT22;10239;56.820;24.416;2023-02-22T16:40:40;-3.00;99.90
20158;DHT22;10239;56.820;24.416;2023-02-22T16:43:16;-3.00;99.90
20158;DHT22;10239;56.820;24.416;2023-02-22T16:45:45;-3.10;99.90
20158;DHT22;10239;56.820;24.416;2023-02-22T16:48:27;-3.10;99.90
20158;DHT22;10239;56.820;24.416;2023-02-22T16:51:00;-3.10;99.90
20158;DHT22;10239;56.820;24.416;2023-02-22T16:53:31;-3.20;99.90
20158;DHT22;10239;56.820;24.416;2023-02-22T16:56:02;-3.20;99.90
20158;DHT22;10239;56.820;24.416;2023-02-22T16:58:33;-3.20;99.90
20158;DHT22;10239;56.820;24.416;2023-02-22T17:01:02;-3.30;99.90
20158;DHT22;10239;56.820;24.416;2023-02-22T17:03:29;-3.40;99.90
20158;DHT22;10239;56.820;24.416;2023-02-22T17:05:56;-3.50;99.90
20158;DHT22;10239;56.820;24.416;2023-02-22T17:08:24;-3.50;99.90
20158;DHT22;10239;56.820;24.416;2023-02-22T17:10:53;-3.60;99.90
20158;DHT22;10239;56.820;24.416;2023-02-22T17:13:25;-3.60;99.90
20158;DHT22;10239;56.820;24.416;2023-02-22T17:15:54;-3.70;99.90
20158;DHT22;10239;56.820;24.416;2023-02-22T17:18:24;-3.60;99.90
20158;DHT22;10239;56.820;24.416;2023-02-22T17:20:55;-3.70;99.90
20158;DHT22;10239;56.820;24.416;2023-02-22T17:23:23;-3.80;99.90
20158;DHT22;10239;56.820;24.416;2023-02-22T17:25:52;-3.80;99.90
20158;DHT22;10239;56.820;24.416;2023-02-22T17:28:22;-3.80;99.90
20158;DHT22;10239;56.820;24.416;2023-02-22T17:30:52;-3.80;99.90
20158;DHT22;10239;56.820;24.416;2023-02-22T17:33:23;-3.90;99.90
20158;DHT22;10239;56.820;24.416;2023-02-22T17:35:54;-4.00;99.90
20158;DHT22;10239;56.820;24.416;2023-02-22T17:38:24;-4.00;99.90
20158;DHT22;10239;56.820;24.416;2023-02-22T17:40:56;-4.00;99.90
20158;DHT22;10239;56.820;24.416;2023-02-22T17:43:25;-4.10;99.90
20158;DHT22;10239;56.820;24.416;2023-02-22T17:45:56;-4.10;99.90
20158;DHT22;10239;56.820;24.416;2023-02-22T17:48:24;-4.00;99.90
20158;DHT22;10239;56.820;24.416;2023-02-22T17:50:51;-4.10;99.90
20158;DHT22;10239;56.820;24.416;2023-02-22T17:53:19;-4.10;99.90
20158;DHT22;10239;56.820;24.416;2023-02-22T17:55:49;-4.10;99.90
20158;DHT22;10239;56.820;24.416;2023-02-22T17:58:17;-4.10;99.90
20158;DHT22;10239;56.820;24.416;2023-02-22T18:00:47;-4.20;99.90
20158;DHT22;10239;56.820;24.416;2023-02-22T18:03:19;-4.30;99.90
20158;DHT22;10239;56.820;24.416;2023-02-22T18:05:55;-4.30;99.90
20158;DHT22;10239;56.820;24.416;2023-02-22T18:08:25;-4.30;99.90
20158;DHT22;10239;56.820;24.416;2023-02-22T18:10:52;-4.30;99.90
20158;DHT22;10239;56.820;24.416;2023-02-22T18:13:25;-4.30;99.90
20158;DHT22;10239;56.820;24.416;2023-02-22T18:15:55;-4.40;99.90
20158;DHT22;10239;56.820;24.416;2023-02-22T18:18:26;-4.40;99.90
20158;DHT22;10239;56.820;24.416;2023-02-22T18:20:54;-4.50;99.90
20158;DHT22;10239;56.820;24.416;2023-02-22T18:23:28;-4.60;99.90
20158;DHT22;10239;56.820;24.416;2023-02-22T18:25:57;-4.50;99.90
20158;DHT22;10239;56.820;24.416;2023-02-22T18:28:37;-4.60;99.90
20158;DHT22;10239;56.820;24.416;2023-02-22T18:31:13;-4.70;99.90
20158;DHT22;10239;56.820;24.416;2023-02-22T18:33:47;-4.60;99.90
20158;DHT22;10239;56.820;24.416;2023-02-22T18:36:17;-4.70;99.90
20158;DHT22;10239;56.820;24.416;2023-02-22T18:38:52;-4.70;99.90
20158;DHT22;10239;56.820;24.416;2023-02-22T18:41:21;-4.70;99.90
20158;DHT22;10239;56.820;24.416;2023-02-22T18:43:52;-4.80;99.90
20158;DHT22;10239;56.820;24.416;2023-02-22T18:46:23;-4.80;99.90